Flight Track Log - Related Links

Times and Time Zones

All times are in EDT time to prevent confusion due to time zone crossing. See the N61698 flight status page for this flight to view local times or setup timezone preferences in your user account.

Time Position Orientation Groundspeed Altitude Reporting Facility
EDT Latitude Longitude Course Direction KTS MPH feet Rate Location/Type
Mon 09:42:19 PM 48.0883 -122.1317 161° South 143 165 5,700  Level Seattle Center
Mon 09:43:20 PM 48.0447 -122.1094 161° South 193 222 6,300 233 Climbing Seattle Center
Mon 09:44:28 PM 47.9836 -122.0786 161° South 215 247 6,200 140 Descending Seattle Center
Mon 09:45:29 PM 47.9250 -122.0636 170° South 213 245 6,600 780 Climbing Seattle Center
Mon 09:46:31 PM 47.8761 -122.0883 199° South 187 215 7,800 1,317 Climbing Seattle Center
Mon 09:47:32 PM 47.8356 -122.1147 204° Southwest 163 188 9,300 1,563 Climbing Seattle Center
Mon 09:48:30 PM 47.7975 -122.1522 214° Southwest 154 177 10,900 1,525 Climbing Seattle Center
Mon 09:49:34 PM 47.7586 -122.1833 208° Southwest 150 173 12,400 1,355 Climbing Seattle Center
Mon 09:50:34 PM 47.7197 -122.2092 204° Southwest 157 181 13,700 1,339 Climbing Seattle Center
Mon 09:51:35 PM 47.6797 -122.2206 191° South 150 173 15,100 689 Climbing Seattle Center
Mon 09:52:36 PM 47.6222 -122.2361 190° South 212 244 15,100  Level Seattle Center
Mon 09:53:38 PM 47.5664 -122.2569 194° South 212 244 15,100  Level Seattle Center
Mon 09:54:38 PM 47.5081 -122.2792 194° South 216 249 15,100  Level Seattle Center
Mon 09:55:39 PM 47.4500 -122.3006 194° South 220 253 15,100  Level Seattle Center
Mon 09:56:40 PM 47.3861 -122.2917 175° South 223 257 15,100  Level Seattle Center
Mon 09:57:41 PM 47.3269 -122.2617 161° South 226 260 15,100  Level Seattle Center
Mon 09:58:42 PM 47.2628 -122.2344 164° South 224 258 15,100  Level Seattle Center
Mon 09:59:43 PM 47.2022 -122.2097 164° South 226 260 15,100  Level Seattle Center
Mon 10:00:44 PM 47.1408 -122.1858 165° South 228 262 15,100 -49 Level Seattle Center
Mon 10:01:45 PM 47.0800 -122.1608 164° South 228 262 15,000 -49 Descending Seattle Center
Mon 10:02:46 PM 47.0192 -122.1369 165° South 227 261 15,000  Level Seattle Center
Mon 10:03:47 PM 46.9528 -122.1139 167° South 227 261 15,000  Level Seattle Center
Mon 10:04:48 PM 46.8906 -122.0928 167° South 230 265 15,000  Level Seattle Center
Mon 10:05:49 PM 46.8294 -122.0631 162° South 234 269 15,000  Level Seattle Center
Mon 10:06:50 PM 46.7706 -122.0250 156° South 232 267 15,000  Level Seattle Center
Mon 10:07:51 PM 46.7175 -121.9894 155° Southeast 234 269 15,000  Level Seattle Center
Mon 10:08:52 PM 46.6481 -121.9433 155° Southeast 232 267 15,000  Level Seattle Center
Mon 10:09:53 PM 46.5883 -121.9086 158° South 233 268 15,000 49 Level Seattle Center
Mon 10:10:54 PM 46.5267 -121.8867 166° South 229 264 15,100 49 Climbing Seattle Center
Mon 10:11:55 PM 46.4644 -121.8708 170° South 229 264 15,100  Level Seattle Center
Mon 10:12:56 PM 46.4025 -121.8486 166° South 231 266 15,100  Level Seattle Center
Mon 10:13:57 PM 46.3414 -121.8278 167° South 228 262 15,100  Level Seattle Center
Mon 10:14:58 PM 46.2783 -121.8069 167° South 233 268 15,100  Level Seattle Center
Mon 10:15:59 PM 46.2125 -121.7836 166° South 233 268 15,100  Level Seattle Center
Mon 10:17:00 PM 46.1494 -121.7644 168° South 232 267 15,100  Level Seattle Center
Mon 10:18:01 PM 46.0869 -121.7414 166° South 233 268 15,100  Level Seattle Center
Mon 10:19:02 PM 46.0239 -121.7231 169° South 232 267 15,100  Level Seattle Center
Mon 10:20:03 PM 45.9603 -121.7022 167° South 234 269 15,100  Level Seattle Center
Mon 10:21:04 PM 45.8847 -121.6750 166° South 237 273 15,100  Level Seattle Center
Mon 10:22:05 PM 45.8214 -121.6533 167° South 236 272 15,100  Level Seattle Center
Mon 10:23:06 PM 45.7592 -121.6319 167° South 232 267 15,100  Level Seattle Center
Mon 10:24:07 PM 45.6969 -121.6131 168° South 231 266 15,100  Level Seattle Center
Mon 10:25:08 PM 45.6350 -121.5933 167° South 229 264 15,100  Level Seattle Center
Mon 10:26:09 PM 45.5739 -121.5714 166° South 227 261 15,100 -49 Level Seattle Center
Mon 10:27:10 PM 45.5100 -121.5531 169° South 232 267 15,000 -49 Descending Seattle Center
Mon 10:28:11 PM 45.4472 -121.5314 166° South 233 268 15,000  Level Seattle Center
Mon 10:29:12 PM 45.3861 -121.5122 168° South 229 264 15,000 -49 Level Seattle Center
Mon 10:30:13 PM 45.3250 -121.4914 167° South 227 261 14,900 -49 Descending Seattle Center
Mon 10:31:14 PM 45.2628 -121.4725 168° South 228 262 14,900  Level Seattle Center
Mon 10:32:15 PM 45.1922 -121.4483 166° South 223 257 14,900 98 Level Seattle Center
Mon 10:33:16 PM 45.1317 -121.4294 168° South 223 257 15,100 98 Climbing Seattle Center
Mon 10:34:17 PM 45.0711 -121.4086 166° South 227 261 15,100  Level Seattle Center
Mon 10:35:18 PM 45.0100 -121.3897 168° South 227 261 15,100  Level Seattle Center
Mon 10:36:18 PM 44.9494 -121.3703 167° South 225 259 15,100  Level Seattle Center
Mon 10:37:19 PM 44.8883 -121.3511 167° South 225 259 15,100 -344 Level Seattle Center
Mon 10:38:20 PM 44.8258 -121.3269 165° South 232 267 14,400 -787 Descending Seattle Center
Mon 10:39:21 PM 44.7611 -121.2958 161° South 244 281 13,500 -984 Descending Seattle Center
Mon 10:40:22 PM 44.6967 -121.2700 164° South 243 280 12,400 -1,131 Descending Seattle Center
Mon 10:41:23 PM 44.6347 -121.2481 166° South 233 268 11,200 -1,180 Descending Seattle Center
Mon 10:42:24 PM 44.5689 -121.2281 168° South 230 265 10,000 -1,279 Descending Seattle Center
Mon 10:43:25 PM 44.5044 -121.2089 168° South 235 270 8,600 -1,377 Descending Seattle Center

Login

Don't have an account? Register now (free) for customized features, flight alerts, and more!